sensor_id;sensor_type;location;lat;lon;timestamp;temperature;humidity
71514;DHT22;59335;46.652;21.272;2023-03-01T00:00:46;22.72;32.67
71514;DHT22;59335;46.652;21.272;2023-03-01T00:03:49;22.68;32.63
71514;DHT22;59335;46.652;21.272;2023-03-01T00:06:52;22.72;32.64
71514;DHT22;59335;46.652;21.272;2023-03-01T00:09:54;22.71;32.64
71514;DHT22;59335;46.652;21.272;2023-03-01T00:12:57;22.71;32.66
71514;DHT22;59335;46.652;21.272;2023-03-01T00:16:09;22.69;32.57
71514;DHT22;59335;46.652;21.272;2023-03-01T00:19:15;22.71;32.61
71514;DHT22;59335;46.652;21.272;2023-03-01T00:22:18;22.69;32.56
71514;DHT22;59335;46.652;21.272;2023-03-01T00:25:21;22.71;32.60
71514;DHT22;59335;46.652;21.272;2023-03-01T00:28:24;22.67;32.56
71514;DHT22;59335;46.652;21.272;2023-03-01T00:31:29;22.69;32.60
71514;DHT22;59335;46.652;21.272;2023-03-01T00:34:32;22.68;32.58
71514;DHT22;59335;46.652;21.272;2023-03-01T00:37:35;22.69;32.57
71514;DHT22;59335;46.652;21.272;2023-03-01T00:40:39;22.68;32.59
71514;DHT22;59335;46.652;21.272;2023-03-01T00:43:43;22.69;32.55
71514;DHT22;59335;46.652;21.272;2023-03-01T00:46:46;22.68;32.52
71514;DHT22;59335;46.652;21.272;2023-03-01T00:49:49;22.71;32.55
71514;DHT22;59335;46.652;21.272;2023-03-01T00:52:55;22.71;32.53
71514;DHT22;59335;46.652;21.272;2023-03-01T00:55:58;22.72;32.52
71514;DHT22;59335;46.652;21.272;2023-03-01T00:59:01;22.68;32.55
71514;DHT22;59335;46.652;21.272;2023-03-01T01:02:03;22.71;32.49
71514;DHT22;59335;46.652;21.272;2023-03-01T01:05:06;22.74;32.45
71514;DHT22;59335;46.652;21.272;2023-03-01T01:08:09;22.67;32.51
71514;DHT22;59335;46.652;21.272;2023-03-01T01:11:13;22.69;32.52
71514;DHT22;59335;46.652;21.272;2023-03-01T01:14:17;22.69;32.53
71514;DHT22;59335;46.652;21.272;2023-03-01T01:17:20;22.69;32.49
71514;DHT22;59335;46.652;21.272;2023-03-01T01:20:23;22.71;32.52
71514;DHT22;59335;46.652;21.272;2023-03-01T01:23:25;22.69;32.47
71514;DHT22;59335;46.652;21.272;2023-03-01T01:26:30;22.72;32.47
71514;DHT22;59335;46.652;21.272;2023-03-01T01:29:33;22.69;32.45
71514;DHT22;59335;46.652;21.272;2023-03-01T01:32:36;22.68;32.43
71514;DHT22;59335;46.652;21.272;2023-03-01T01:35:39;22.69;32.41
71514;DHT22;59335;46.652;21.272;2023-03-01T01:38:43;22.68;32.45
71514;DHT22;59335;46.652;21.272;2023-03-01T01:41:47;22.68;32.43
71514;DHT22;59335;46.652;21.272;2023-03-01T01:48:51;22.68;32.38
71514;DHT22;59335;46.652;21.272;2023-03-01T01:52:00;22.69;32.35
71514;DHT22;59335;46.652;21.272;2023-03-01T01:55:11;22.68;32.40
71514;DHT22;59335;46.652;21.272;2023-03-01T01:58:19;22.67;32.37
71514;DHT22;59335;46.652;21.272;2023-03-01T02:01:24;22.69;32.35
71514;DHT22;59335;46.652;21.272;2023-03-01T02:04:28;22.67;32.31
71514;DHT22;59335;46.652;21.272;2023-03-01T02:07:31;22.69;32.29
71514;DHT22;59335;46.652;21.272;2023-03-01T02:10:35;22.67;32.31
71514;DHT22;59335;46.652;21.272;2023-03-01T02:13:38;22.69;32.35
71514;DHT22;59335;46.652;21.272;2023-03-01T02:16:41;22.67;32.32
71514;DHT22;59335;46.652;21.272;2023-03-01T02:22:53;22.67;32.26
71514;DHT22;59335;46.652;21.272;2023-03-01T02:26:02;22.67;32.23
71514;DHT22;59335;46.652;21.272;2023-03-01T02:29:09;22.67;32.26
71514;DHT22;59335;46.652;21.272;2023-03-01T02:32:12;22.65;32.21
71514;DHT22;59335;46.652;21.272;2023-03-01T02:35:17;22.67;32.17
71514;DHT22;59335;46.652;21.272;2023-03-01T02:38:22;22.67;32.20
71514;DHT22;59335;46.652;21.272;2023-03-01T02:41:26;22.67;32.17
71514;DHT22;59335;46.652;21.272;2023-03-01T02:44:30;22.65;32.18
71514;DHT22;59335;46.652;21.272;2023-03-01T02:47:33;22.64;32.15
71514;DHT22;59335;46.652;21.272;2023-03-01T02:51:05;22.65;32.11
71514;DHT22;59335;46.652;21.272;2023-03-01T02:54:18;22.64;32.12
71514;DHT22;59335;46.652;21.272;2023-03-01T02:57:23;22.65;32.11
71514;DHT22;59335;46.652;21.272;2023-03-01T03:00:33;22.65;32.10
71514;DHT22;59335;46.652;21.272;2023-03-01T03:03:36;22.65;32.10
71514;DHT22;59335;46.652;21.272;2023-03-01T03:06:40;22.64;32.09
71514;DHT22;59335;46.652;21.272;2023-03-01T03:09:44;22.61;32.11
71514;DHT22;59335;46.652;21.272;2023-03-01T03:13:01;22.64;32.11
71514;DHT22;59335;46.652;21.272;2023-03-01T03:16:05;22.64;32.10
71514;DHT22;59335;46.652;21.272;2023-03-01T03:19:08;22.63;32.04
71514;DHT22;59335;46.652;21.272;2023-03-01T03:22:12;22.65;32.12
71514;DHT22;59335;46.652;21.272;2023-03-01T03:25:16;22.65;32.13
71514;DHT22;59335;46.652;21.272;2023-03-01T03:28:19;22.64;32.10
71514;DHT22;59335;46.652;21.272;2023-03-01T03:31:22;22.63;32.13
71514;DHT22;59335;46.652;21.272;2023-03-01T03:34:24;22.65;32.12
71514;DHT22;59335;46.652;21.272;2023-03-01T03:37:27;22.65;32.12
71514;DHT22;59335;46.652;21.272;2023-03-01T03:40:51;22.64;32.09
71514;DHT22;59335;46.652;21.272;2023-03-01T03:43:54;22.64;32.09
71514;DHT22;59335;46.652;21.272;2023-03-01T03:46:57;22.64;32.11
71514;DHT22;59335;46.652;21.272;2023-03-01T03:50:00;22.61;32.12
71514;DHT22;59335;46.652;21.272;2023-03-01T03:53:09;22.64;32.15
71514;DHT22;59335;46.652;21.272;2023-03-01T03:56:12;22.63;32.15
71514;DHT22;59335;46.652;21.272;2023-03-01T03:59:15;22.61;32.10
71514;DHT22;59335;46.652;21.272;2023-03-01T04:02:18;22.64;32.09
71514;DHT22;59335;46.652;21.272;2023-03-01T04:05:24;22.64;32.17
71514;DHT22;59335;46.652;21.272;2023-03-01T04:08:28;22.63;32.15
71514;DHT22;59335;46.652;21.272;2023-03-01T04:11:30;22.63;32.14
71514;DHT22;59335;46.652;21.272;2023-03-01T04:14:33;22.63;32.09
71514;DHT22;59335;46.652;21.272;2023-03-01T04:17:45;22.64;32.17
71514;DHT22;59335;46.652;21.272;2023-03-01T04:20:49;22.64;32.15
71514;DHT22;59335;46.652;21.272;2023-03-01T04:23:54;22.64;32.14
71514;DHT22;59335;46.652;21.272;2023-03-01T04:26:57;22.63;32.11
71514;DHT22;59335;46.652;21.272;2023-03-01T04:30:00;22.64;32.09
71514;DHT22;59335;46.652;21.272;2023-03-01T04:33:06;22.64;32.08
71514;DHT22;59335;46.652;21.272;2023-03-01T04:36:09;22.64;32.09
71514;DHT22;59335;46.652;21.272;2023-03-01T04:39:14;22.63;32.08
71514;DHT22;59335;46.652;21.272;2023-03-01T04:42:17;22.65;32.11
71514;DHT22;59335;46.652;21.272;2023-03-01T04:45:20;22.63;32.08
71514;DHT22;59335;46.652;21.272;2023-03-01T04:48:22;22.64;32.08
71514;DHT22;59335;46.652;21.272;2023-03-01T04:51:25;22.63;32.01
71514;DHT22;59335;46.652;21.272;2023-03-01T04:54:29;22.63;32.04
71514;DHT22;59335;46.652;21.272;2023-03-01T04:57:32;22.60;32.04
71514;DHT22;59335;46.652;21.272;2023-03-01T05:00:35;22.60;32.06
71514;DHT22;59335;46.652;21.272;2023-03-01T05:03:38;22.63;32.06
71514;DHT22;59335;46.652;21.272;2023-03-01T05:06:41;22.61;32.06
71514;DHT22;59335;46.652;21.272;2023-03-01T05:09:43;22.61;32.06
71514;DHT22;59335;46.652;21.272;2023-03-01T05:12:46;22.61;32.04
71514;DHT22;59335;46.652;21.272;2023-03-01T05:15:54;22.63;32.02
71514;DHT22;59335;46.652;21.272;2023-03-01T05:18:58;22.61;32.07
71514;DHT22;59335;46.652;21.272;2023-03-01T05:22:00;22.63;32.01
71514;DHT22;59335;46.652;21.272;2023-03-01T05:25:06;22.63;32.03
71514;DHT22;59335;46.652;21.272;2023-03-01T05:28:13;22.63;32.07
71514;DHT22;59335;46.652;21.272;2023-03-01T05:31:18;22.60;32.04
71514;DHT22;59335;46.652;21.272;2023-03-01T05:34:28;22.63;32.03
71514;DHT22;59335;46.652;21.272;2023-03-01T05:37:32;22.63;32.03
71514;DHT22;59335;46.652;21.272;2023-03-01T05:40:36;22.61;32.04
71514;DHT22;59335;46.652;21.272;2023-03-01T05:43:39;22.63;32.09
71514;DHT22;59335;46.652;21.272;2023-03-01T05:46:44;22.61;32.09
71514;DHT22;59335;46.652;21.272;2023-03-01T05:49:47;22.61;32.12
71514;DHT22;59335;46.652;21.272;2023-03-01T05:52:52;22.61;32.09
71514;DHT22;59335;46.652;21.272;2023-03-01T05:55:55;22.61;32.35
71514;DHT22;59335;46.652;21.272;2023-03-01T05:58:58;22.64;32.68
71514;DHT22;59335;46.652;21.272;2023-03-01T06:02:00;22.64;32.52
71514;DHT22;59335;46.652;21.272;2023-03-01T06:05:05;22.67;32.44
71514;DHT22;59335;46.652;21.272;2023-03-01T06:08:10;22.65;32.40
71514;DHT22;59335;46.652;21.272;2023-03-01T06:11:13;22.69;32.40
71514;DHT22;59335;46.652;21.272;2023-03-01T06:14:15;22.68;32.40
71514;DHT22;59335;46.652;21.272;2023-03-01T06:17:18;22.65;32.34
71514;DHT22;59335;46.652;21.272;2023-03-01T06:20:22;22.69;32.35
71514;DHT22;59335;46.652;21.272;2023-03-01T06:23:25;22.68;32.38
71514;DHT22;59335;46.652;21.272;2023-03-01T06:26:28;22.63;32.42
71514;DHT22;59335;46.652;21.272;2023-03-01T06:29:31;22.53;34.09
71514;DHT22;59335;46.652;21.272;2023-03-01T06:32:34;22.33;35.13
71514;DHT22;59335;46.652;21.272;2023-03-01T06:35:37;22.40;35.05
71514;DHT22;59335;46.652;21.272;2023-03-01T06:38:40;22.44;34.35
71514;DHT22;59335;46.652;21.272;2023-03-01T06:41:44;22.57;33.98
71514;DHT22;59335;46.652;21.272;2023-03-01T06:44:47;22.63;34.18
71514;DHT22;59335;46.652;21.272;2023-03-01T06:47:50;22.72;33.85
71514;DHT22;59335;46.652;21.272;2023-03-01T06:50:53;22.76;34.22
71514;DHT22;59335;46.652;21.272;2023-03-01T06:53:56;22.76;34.98
71514;DHT22;59335;46.652;21.272;2023-03-01T06:57:02;22.84;34.66
71514;DHT22;59335;46.652;21.272;2023-03-01T07:00:05;22.88;34.30
71514;DHT22;59335;46.652;21.272;2023-03-01T07:03:09;22.87;34.59
71514;DHT22;59335;46.652;21.272;2023-03-01T07:06:15;22.90;34.65
71514;DHT22;59335;46.652;21.272;2023-03-01T07:09:18;22.91;34.72
71514;DHT22;59335;46.652;21.272;2023-03-01T07:12:22;22.91;34.50
71514;DHT22;59335;46.652;21.272;2023-03-01T07:15:28;22.94;34.50
71514;DHT22;59335;46.652;21.272;2023-03-01T07:18:30;22.96;34.39
71514;DHT22;59335;46.652;21.272;2023-03-01T07:21:33;22.96;34.37
71514;DHT22;59335;46.652;21.272;2023-03-01T07:24:36;22.98;34.32
71514;DHT22;59335;46.652;21.272;2023-03-01T07:27:39;22.95;34.32
71514;DHT22;59335;46.652;21.272;2023-03-01T07:30:44;22.96;34.34
71514;DHT22;59335;46.652;21.272;2023-03-01T07:33:47;22.96;34.31
71514;DHT22;59335;46.652;21.272;2023-03-01T07:36:49;22.96;34.35
71514;DHT22;59335;46.652;21.272;2023-03-01T07:39:52;22.98;34.27
71514;DHT22;59335;46.652;21.272;2023-03-01T07:42:56;22.98;34.28
71514;DHT22;59335;46.652;21.272;2023-03-01T07:46:01;22.98;34.35
71514;DHT22;59335;46.652;21.272;2023-03-01T07:49:04;23.01;34.38
71514;DHT22;59335;46.652;21.272;2023-03-01T08:10:11;23.13;34.97
71514;DHT22;59335;46.652;21.272;2023-03-01T08:13:14;23.16;35.03
71514;DHT22;59335;46.652;21.272;2023-03-01T08:16:18;23.19;34.99
71514;DHT22;59335;46.652;21.272;2023-03-01T08:19:22;23.23;35.06
71514;DHT22;59335;46.652;21.272;2023-03-01T08:22:25;23.24;35.07
71514;DHT22;59335;46.652;21.272;2023-03-01T08:30:08;23.26;35.07
71514;DHT22;59335;46.652;21.272;2023-03-01T08:33:11;23.32;35.03
71514;DHT22;59335;46.652;21.272;2023-03-01T08:41:02;23.34;35.00
71514;DHT22;59335;46.652;21.272;2023-03-01T08:44:06;23.36;35.02
71514;DHT22;59335;46.652;21.272;2023-03-01T08:47:09;23.39;34.98
71514;DHT22;59335;46.652;21.272;2023-03-01T08:50:14;23.38;35.38
71514;DHT22;59335;46.652;21.272;2023-03-01T08:53:18;23.40;35.83
71514;DHT22;59335;46.652;21.272;2023-03-01T08:56:21;23.46;35.39
71514;DHT22;59335;46.652;21.272;2023-03-01T10:10:36;23.64;37.15
71514;DHT22;59335;46.652;21.272;2023-03-01T10:20:33;23.64;37.34
71514;DHT22;59335;46.652;21.272;2023-03-01T10:23:42;23.64;37.29
71514;DHT22;59335;46.652;21.272;2023-03-01T10:26:57;23.57;37.56
71514;DHT22;59335;46.652;21.272;2023-03-01T10:33:19;23.60;37.22
71514;DHT22;59335;46.652;21.272;2023-03-01T10:36:23;23.60;37.20
71514;DHT22;59335;46.652;21.272;2023-03-01T10:39:27;23.57;37.16
71514;DHT22;59335;46.652;21.272;2023-03-01T10:42:34;23.56;37.08
71514;DHT22;59335;46.652;21.272;2023-03-01T10:45:40;23.56;37.13
71514;DHT22;59335;46.652;21.272;2023-03-01T10:48:43;23.56;37.42
71514;DHT22;59335;46.652;21.272;2023-03-01T10:51:49;23.54;37.50
71514;DHT22;59335;46.652;21.272;2023-03-01T10:54:56;23.57;37.64
71514;DHT22;59335;46.652;21.272;2023-03-01T11:01:26;23.33;36.70
71514;DHT22;59335;46.652;21.272;2023-03-01T11:04:30;23.34;37.26
71514;DHT22;59335;46.652;21.272;2023-03-01T11:07:47;23.38;37.40
71514;DHT22;59335;46.652;21.272;2023-03-01T11:11:09;23.39;37.50
71514;DHT22;59335;46.652;21.272;2023-03-01T11:17:30;23.40;37.78
71514;DHT22;59335;46.652;21.272;2023-03-01T11:20:51;23.42;37.71
71514;DHT22;59335;46.652;21.272;2023-03-01T11:23:57;23.42;37.63
71514;DHT22;59335;46.652;21.272;2023-03-01T11:27:04;23.39;37.62
71514;DHT22;59335;46.652;21.272;2023-03-01T11:33:40;23.45;37.70
71514;DHT22;59335;46.652;21.272;2023-03-01T11:36:51;23.42;37.58
71514;DHT22;59335;46.652;21.272;2023-03-01T11:40:04;23.45;37.58
71514;DHT22;59335;46.652;21.272;2023-03-01T11:43:28;23.45;37.59
71514;DHT22;59335;46.652;21.272;2023-03-01T11:56:55;23.45;38.38
71514;DHT22;59335;46.652;21.272;2023-03-01T12:03:43;23.50;38.66
71514;DHT22;59335;46.652;21.272;2023-03-01T12:10:37;23.33;37.93
71514;DHT22;59335;46.652;21.272;2023-03-01T12:27:50;23.24;37.47
71514;DHT22;59335;46.652;21.272;2023-03-01T12:41:27;23.32;37.40
71514;DHT22;59335;46.652;21.272;2023-03-01T12:50:53;23.27;37.87
71514;DHT22;59335;46.652;21.272;2023-03-01T12:53:57;23.34;38.08
71514;DHT22;59335;46.652;21.272;2023-03-01T12:57:23;23.36;37.85
71514;DHT22;59335;46.652;21.272;2023-03-01T13:00:38;23.38;38.13
71514;DHT22;59335;46.652;21.272;2023-03-01T13:07:55;23.40;38.30
71514;DHT22;59335;46.652;21.272;2023-03-01T13:10:50;23.42;38.11
71514;DHT22;59335;46.652;21.272;2023-03-01T13:17:31;23.43;38.21
71514;DHT22;59335;46.652;21.272;2023-03-01T13:20:47;23.45;38.35
71514;DHT22;59335;46.652;21.272;2023-03-01T13:23:50;23.45;38.32
71514;DHT22;59335;46.652;21.272;2023-03-01T13:30:47;23.45;38.33
71514;DHT22;59335;46.652;21.272;2023-03-01T13:33:54;23.45;38.28
71514;DHT22;59335;46.652;21.272;2023-03-01T13:37:09;23.43;38.19
71514;DHT22;59335;46.652;21.272;2023-03-01T13:43:36;23.40;38.29
71514;DHT22;59335;46.652;21.272;2023-03-01T13:46:40;23.39;38.29
71514;DHT22;59335;46.652;21.272;2023-03-01T13:49:58;23.34;38.52
71514;DHT22;59335;46.652;21.272;2023-03-01T13:53:06;23.40;38.27
71514;DHT22;59335;46.652;21.272;2023-03-01T13:56:13;23.38;38.19
71514;DHT22;59335;46.652;21.272;2023-03-01T13:59:22;23.43;38.13
71514;DHT22;59335;46.652;21.272;2023-03-01T14:02:24;23.42;38.09
71514;DHT22;59335;46.652;21.272;2023-03-01T14:05:27;23.40;38.21
71514;DHT22;59335;46.652;21.272;2023-03-01T14:08:31;23.42;38.14
71514;DHT22;59335;46.652;21.272;2023-03-01T14:18:32;23.39;37.84
71514;DHT22;59335;46.652;21.272;2023-03-01T14:21:40;23.34;37.72
71514;DHT22;59335;46.652;21.272;2023-03-01T14:24:55;23.38;37.92
71514;DHT22;59335;46.652;21.272;2023-03-01T14:31:42;23.32;37.86
71514;DHT22;59335;46.652;21.272;2023-03-01T14:34:56;23.30;37.76
71514;DHT22;59335;46.652;21.272;2023-03-01T14:38:02;23.32;37.78
71514;DHT22;59335;46.652;21.272;2023-03-01T14:41:20;23.32;37.79
71514;DHT22;59335;46.652;21.272;2023-03-01T14:44:23;23.36;37.89
71514;DHT22;59335;46.652;21.272;2023-03-01T14:47:31;23.32;38.04
71514;DHT22;59335;46.652;21.272;2023-03-01T14:50:40;23.36;37.87
71514;DHT22;59335;46.652;21.272;2023-03-01T14:53:44;23.32;37.79
71514;DHT22;59335;46.652;21.272;2023-03-01T14:56:57;23.29;37.70
71514;DHT22;59335;46.652;21.272;2023-03-01T15:00:03;23.26;37.59
71514;DHT22;59335;46.652;21.272;2023-03-01T15:03:13;23.22;37.51
71514;DHT22;59335;46.652;21.272;2023-03-01T15:06:19;23.19;37.57
71514;DHT22;59335;46.652;21.272;2023-03-01T15:09:22;23.19;37.58
71514;DHT22;59335;46.652;21.272;2023-03-01T15:15:36;23.15;37.45
71514;DHT22;59335;46.652;21.272;2023-03-01T15:18:48;23.11;37.36
71514;DHT22;59335;46.652;21.272;2023-03-01T15:21:53;23.11;37.28
71514;DHT22;59335;46.652;21.272;2023-03-01T15:24:56;23.11;37.09
71514;DHT22;59335;46.652;21.272;2023-03-01T15:28:00;23.06;37.03
71514;DHT22;59335;46.652;21.272;2023-03-01T15:31:18;23.08;36.88
71514;DHT22;59335;46.652;21.272;2023-03-01T15:40:49;23.02;36.57
71514;DHT22;59335;46.652;21.272;2023-03-01T15:43:53;23.05;36.60
71514;DHT22;59335;46.652;21.272;2023-03-01T15:46:59;23.02;36.58
71514;DHT22;59335;46.652;21.272;2023-03-01T15:50:02;23.03;36.39
71514;DHT22;59335;46.652;21.272;2023-03-01T15:53:10;23.01;36.43
71514;DHT22;59335;46.652;21.272;2023-03-01T15:56:13;22.99;36.35
71514;DHT22;59335;46.652;21.272;2023-03-01T15:59:17;23.02;36.17
71514;DHT22;59335;46.652;21.272;2023-03-01T16:02:22;22.98;36.09
71514;DHT22;59335;46.652;21.272;2023-03-01T16:05:28;22.98;36.05
71514;DHT22;59335;46.652;21.272;2023-03-01T16:08:31;22.95;36.09
71514;DHT22;59335;46.652;21.272;2023-03-01T16:11:35;22.94;36.00
71514;DHT22;59335;46.652;21.272;2023-03-01T16:14:39;22.95;36.00
71514;DHT22;59335;46.652;21.272;2023-03-01T16:17:42;22.95;35.96
71514;DHT22;59335;46.652;21.272;2023-03-01T16:20:48;22.95;35.85
71514;DHT22;59335;46.652;21.272;2023-03-01T16:23:51;22.92;35.81
71514;DHT22;59335;46.652;21.272;2023-03-01T16:26:56;22.92;35.85
71514;DHT22;59335;46.652;21.272;2023-03-01T16:29:58;22.92;35.82
71514;DHT22;59335;46.652;21.272;2023-03-01T16:33:02;22.92;35.76
71514;DHT22;59335;46.652;21.272;2023-03-01T16:36:12;22.92;35.76
71514;DHT22;59335;46.652;21.272;2023-03-01T16:39:16;22.85;36.49
71514;DHT22;59335;46.652;21.272;2023-03-01T16:42:19;22.76;38.29
71514;DHT22;59335;46.652;21.272;2023-03-01T16:45:22;22.69;51.84
71514;DHT22;59335;46.652;21.272;2023-03-01T16:48:26;22.72;51.99
71514;DHT22;59335;46.652;21.272;2023-03-01T16:51:29;22.75;49.15
71514;DHT22;59335;46.652;21.272;2023-03-01T16:54:35;22.76;46.53
71514;DHT22;59335;46.652;21.272;2023-03-01T16:57:38;22.76;45.47
71514;DHT22;59335;46.652;21.272;2023-03-01T17:00:46;22.78;44.11
71514;DHT22;59335;46.652;21.272;2023-03-01T17:03:50;22.76;42.37
71514;DHT22;59335;46.652;21.272;2023-03-01T17:06:55;22.78;41.49
71514;DHT22;59335;46.652;21.272;2023-03-01T17:09:57;22.79;40.76
71514;DHT22;59335;46.652;21.272;2023-03-01T17:13:01;22.81;40.55
71514;DHT22;59335;46.652;21.272;2023-03-01T17:16:06;22.81;40.41
71514;DHT22;59335;46.652;21.272;2023-03-01T17:19:10;22.82;40.29
71514;DHT22;59335;46.652;21.272;2023-03-01T17:22:15;22.84;40.20
71514;DHT22;59335;46.652;21.272;2023-03-01T17:25:19;22.82;40.12
71514;DHT22;59335;46.652;21.272;2023-03-01T17:28:26;22.84;40.06
71514;DHT22;59335;46.652;21.272;2023-03-01T17:31:31;22.84;40.03
71514;DHT22;59335;46.652;21.272;2023-03-01T17:34:35;22.82;40.01
71514;DHT22;59335;46.652;21.272;2023-03-01T17:37:39;22.85;39.98
71514;DHT22;59335;46.652;21.272;2023-03-01T17:40:49;22.84;40.01
71514;DHT22;59335;46.652;21.272;2023-03-01T17:43:52;22.82;39.96
71514;DHT22;59335;46.652;21.272;2023-03-01T17:46:56;22.84;39.85
71514;DHT22;59335;46.652;21.272;2023-03-01T17:49:59;22.82;39.62
71514;DHT22;59335;46.652;21.272;2023-03-01T17:53:03;22.79;39.46
71514;DHT22;59335;46.652;21.272;2023-03-01T17:56:13;22.82;39.43
71514;DHT22;59335;46.652;21.272;2023-03-01T17:59:16;22.79;39.26
71514;DHT22;59335;46.652;21.272;2023-03-01T18:02:23;22.79;39.12
71514;DHT22;59335;46.652;21.272;2023-03-01T18:05:31;22.78;38.94
71514;DHT22;59335;46.652;21.272;2023-03-01T18:08:36;22.79;38.90
71514;DHT22;59335;46.652;21.272;2023-03-01T18:11:39;22.78;38.86
71514;DHT22;59335;46.652;21.272;2023-03-01T18:14:43;22.79;38.70
71514;DHT22;59335;46.652;21.272;2023-03-01T18:17:47;22.76;38.64
71514;DHT22;59335;46.652;21.272;2023-03-01T18:20:57;22.75;38.56
71514;DHT22;59335;46.652;21.272;2023-03-01T18:24:02;22.76;38.49
71514;DHT22;59335;46.652;21.272;2023-03-01T18:27:07;22.76;38.35
71514;DHT22;59335;46.652;21.272;2023-03-01T18:30:12;22.75;38.28
71514;DHT22;59335;46.652;21.272;2023-03-01T18:33:16;22.75;38.22
71514;DHT22;59335;46.652;21.272;2023-03-01T18:36:24;22.74;38.11
71514;DHT22;59335;46.652;21.272;2023-03-01T18:39:30;22.75;38.07
71514;DHT22;59335;46.652;21.272;2023-03-01T18:42:34;22.74;38.01
71514;DHT22;59335;46.652;21.272;2023-03-01T18:45:39;22.74;37.86
71514;DHT22;59335;46.652;21.272;2023-03-01T18:48:47;22.74;37.86
71514;DHT22;59335;46.652;21.272;2023-03-01T18:51:53;22.75;37.77
71514;DHT22;59335;46.652;21.272;2023-03-01T18:54:59;22.72;37.73
71514;DHT22;59335;46.652;21.272;2023-03-01T18:58:04;22.71;37.62
71514;DHT22;59335;46.652;21.272;2023-03-01T19:01:14;22.71;37.53
71514;DHT22;59335;46.652;21.272;2023-03-01T19:04:18;22.74;37.52
71514;DHT22;59335;46.652;21.272;2023-03-01T19:07:22;22.69;37.42
71514;DHT22;59335;46.652;21.272;2023-03-01T19:10:26;22.69;37.38
71514;DHT22;59335;46.652;21.272;2023-03-01T19:13:30;22.71;37.36
71514;DHT22;59335;46.652;21.272;2023-03-01T19:16:34;22.71;37.27
71514;DHT22;59335;46.652;21.272;2023-03-01T19:19:38;22.72;37.15
71514;DHT22;59335;46.652;21.272;2023-03-01T19:22:41;22.71;37.17
71514;DHT22;59335;46.652;21.272;2023-03-01T19:25:47;22.69;37.07
71514;DHT22;59335;46.652;21.272;2023-03-01T19:28:51;22.69;37.00
71514;DHT22;59335;46.652;21.272;2023-03-01T19:31:54;22.68;36.94
71514;DHT22;59335;46.652;21.272;2023-03-01T19:34:58;22.67;36.90
71514;DHT22;59335;46.652;21.272;2023-03-01T19:38:02;22.68;36.89
71514;DHT22;59335;46.652;21.272;2023-03-01T19:41:12;22.67;36.80
71514;DHT22;59335;46.652;21.272;2023-03-01T19:44:20;22.68;36.78
71514;DHT22;59335;46.652;21.272;2023-03-01T19:47:29;22.64;36.71
71514;DHT22;59335;46.652;21.272;2023-03-01T19:50:35;22.65;36.66
71514;DHT22;59335;46.652;21.272;2023-03-01T19:53:41;22.67;36.56
71514;DHT22;59335;46.652;21.272;2023-03-01T19:56:47;22.65;36.52
71514;DHT22;59335;46.652;21.272;2023-03-01T19:59:52;22.67;36.50
71514;DHT22;59335;46.652;21.272;2023-03-01T20:02:56;22.64;36.50
71514;DHT22;59335;46.652;21.272;2023-03-01T20:06:09;22.65;36.42
71514;DHT22;59335;46.652;21.272;2023-03-01T20:09:14;22.64;36.39
71514;DHT22;59335;46.652;21.272;2023-03-01T20:12:24;22.61;36.38
71514;DHT22;59335;46.652;21.272;2023-03-01T20:15:27;22.63;36.32
71514;DHT22;59335;46.652;21.272;2023-03-01T20:18:33;22.64;36.28
71514;DHT22;59335;46.652;21.272;2023-03-01T20:21:37;22.61;36.22
71514;DHT22;59335;46.652;21.272;2023-03-01T20:24:41;22.64;36.19
71514;DHT22;59335;46.652;21.272;2023-03-01T20:27:45;22.65;36.17
71514;DHT22;59335;46.652;21.272;2023-03-01T20:30:49;22.63;36.10
71514;DHT22;59335;46.652;21.272;2023-03-01T20:33:55;22.61;36.04
71514;DHT22;59335;46.652;21.272;2023-03-01T20:36:59;22.63;36.01
71514;DHT22;59335;46.652;21.272;2023-03-01T20:40:04;22.64;36.05
71514;DHT22;59335;46.652;21.272;2023-03-01T20:43:08;22.63;35.97
71514;DHT22;59335;46.652;21.272;2023-03-01T20:46:12;22.63;35.94
71514;DHT22;59335;46.652;21.272;2023-03-01T20:49:17;22.64;35.93
71514;DHT22;59335;46.652;21.272;2023-03-01T20:52:21;22.61;35.84
71514;DHT22;59335;46.652;21.272;2023-03-01T20:55:24;22.64;35.80
71514;DHT22;59335;46.652;21.272;2023-03-01T20:58:28;22.61;35.78
71514;DHT22;59335;46.652;21.272;2023-03-01T21:01:35;22.60;35.71
71514;DHT22;59335;46.652;21.272;2023-03-01T21:04:40;22.58;35.72
71514;DHT22;59335;46.652;21.272;2023-03-01T21:07:43;22.63;35.66
71514;DHT22;59335;46.652;21.272;2023-03-01T21:10:53;22.61;35.68
71514;DHT22;59335;46.652;21.272;2023-03-01T21:13:56;22.60;35.59
71514;DHT22;59335;46.652;21.272;2023-03-01T21:17:00;22.58;35.58
71514;DHT22;59335;46.652;21.272;2023-03-01T21:20:05;22.58;35.54
71514;DHT22;59335;46.652;21.272;2023-03-01T21:23:09;22.58;35.51
71514;DHT22;59335;46.652;21.272;2023-03-01T21:26:15;22.61;35.44
71514;DHT22;59335;46.652;21.272;2023-03-01T21:29:19;22.58;35.47
71514;DHT22;59335;46.652;21.272;2023-03-01T21:32:22;22.60;35.41
71514;DHT22;59335;46.652;21.272;2023-03-01T21:35:25;22.60;35.39
71514;DHT22;59335;46.652;21.272;2023-03-01T21:38:30;22.58;35.35
71514;DHT22;59335;46.652;21.272;2023-03-01T21:41:35;22.57;35.29
71514;DHT22;59335;46.652;21.272;2023-03-01T21:44:38;22.58;35.28
71514;DHT22;59335;46.652;21.272;2023-03-01T21:47:40;22.60;35.23
71514;DHT22;59335;46.652;21.272;2023-03-01T21:50:43;22.60;35.18
71514;DHT22;59335;46.652;21.272;2023-03-01T21:53:45;22.58;35.18
71514;DHT22;59335;46.652;21.272;2023-03-01T21:56:48;22.58;35.13
71514;DHT22;59335;46.652;21.272;2023-03-01T21:59:52;22.57;35.13
71514;DHT22;59335;46.652;21.272;2023-03-01T22:02:59;22.61;35.07
71514;DHT22;59335;46.652;21.272;2023-03-01T22:06:02;22.55;35.03
71514;DHT22;59335;46.652;21.272;2023-03-01T22:09:12;22.60;35.02
71514;DHT22;59335;46.652;21.272;2023-03-01T22:12:16;22.58;34.99
71514;DHT22;59335;46.652;21.272;2023-03-01T22:15:18;22.58;34.97
71514;DHT22;59335;46.652;21.272;2023-03-01T22:18:21;22.60;35.00
71514;DHT22;59335;46.652;21.272;2023-03-01T22:21:24;22.58;35.00
71514;DHT22;59335;46.652;21.272;2023-03-01T22:24:28;22.60;34.96
71514;DHT22;59335;46.652;21.272;2023-03-01T22:27:30;22.58;34.90
71514;DHT22;59335;46.652;21.272;2023-03-01T22:30:36;22.58;34.86
71514;DHT22;59335;46.652;21.272;2023-03-01T22:33:39;22.57;34.86
71514;DHT22;59335;46.652;21.272;2023-03-01T22:36:42;22.55;34.80
71514;DHT22;59335;46.652;21.272;2023-03-01T22:39:44;22.57;34.79